createdAt,value
2023-01-02T00:00:49.492Z,0.77
2023-01-02T00:03:17.200Z,0.85
2023-01-02T00:05:45.466Z,0.80
2023-01-02T00:08:12.957Z,0.60
2023-01-02T00:10:40.568Z,0.90
2023-01-02T00:13:08.108Z,0.52
2023-01-02T00:15:35.859Z,0.60
2023-01-02T00:18:05.509Z,1.10
2023-01-02T00:20:34.478Z,0.65
2023-01-02T00:23:04.489Z,0.73
2023-01-02T00:25:35.147Z,0.73
2023-01-02T00:28:02.835Z,0.80
2023-01-02T00:30:35.991Z,0.75
2023-01-02T00:33:07.337Z,1.05
2023-01-02T00:35:37.969Z,0.60
2023-01-02T00:38:06.023Z,0.32
2023-01-02T00:40:34.138Z,0.57
2023-01-02T00:43:02.397Z,0.52
2023-01-02T00:45:30.059Z,0.63
2023-01-02T00:47:57.675Z,0.90
2023-01-02T00:50:25.131Z,0.60
2023-01-02T00:52:52.677Z,0.47
2023-01-02T00:55:20.181Z,0.60
2023-01-02T00:57:47.728Z,0.50
2023-01-02T01:00:21.667Z,0.80
2023-01-02T01:02:56.204Z,0.70
2023-01-02T01:05:28.086Z,0.65
2023-01-02T01:07:56.711Z,0.80
2023-01-02T01:10:26.127Z,0.70
2023-01-02T01:12:53.631Z,0.50
2023-01-02T01:15:21.320Z,0.50
2023-01-02T01:17:48.874Z,0.80
2023-01-02T01:20:16.465Z,0.60
2023-01-02T01:22:43.997Z,0.60
2023-01-02T01:25:11.586Z,0.52
2023-01-02T01:27:40.022Z,0.60
2023-01-02T01:30:08.355Z,0.43
2023-01-02T01:32:36.862Z,0.60
2023-01-02T01:35:04.746Z,0.73
2023-01-02T01:37:32.395Z,0.50
2023-01-02T01:39:59.869Z,0.40
2023-01-02T01:42:33.567Z,0.53
2023-01-02T01:45:01.556Z,0.40
2023-01-02T01:47:52.555Z,0.35
2023-01-02T01:50:32.546Z,0.20
2023-01-02T01:53:14.024Z,0.43
2023-01-02T01:55:47.469Z,0.40
2023-01-02T01:58:19.854Z,0.30
2023-01-02T02:00:48.856Z,0.30
2023-01-02T02:03:20.597Z,0.47
2023-01-02T02:05:49.056Z,0.40
2023-01-02T02:08:26.091Z,0.60
2023-01-02T02:10:55.072Z,0.47
2023-01-02T02:13:23.411Z,0.40
2023-01-02T02:16:06.567Z,0.67
2023-01-02T02:18:36.805Z,0.20
2023-01-02T02:21:07.158Z,0.30
2023-01-02T02:23:52.615Z,0.30
2023-01-02T02:26:20.105Z,0.33
2023-01-02T02:29:41.006Z,0.40
2023-01-02T02:32:27.785Z,0.53
2023-01-02T02:35:19.460Z,0.30
2023-01-02T02:37:55.268Z,0.20
2023-01-02T02:41:06.925Z,0.20
2023-01-02T02:43:58.434Z,0.27
2023-01-02T02:46:43.285Z,0.30
2023-01-02T02:49:24.636Z,0.30
2023-01-02T02:52:12.493Z,0.10
2023-01-02T02:54:46.435Z,0.40
2023-01-02T02:57:15.295Z,0.30
2023-01-02T02:59:43.522Z,0.30
2023-01-02T03:02:16.515Z,0.13
2023-01-02T03:04:58.241Z,0.20
2023-01-02T03:08:32.831Z,0.10
2023-01-02T03:11:03.023Z,0.13
2023-01-02T03:14:07.391Z,0.30
2023-01-02T03:16:43.638Z,0.13
2023-01-02T03:19:20.573Z,0.10
2023-01-02T03:21:53.874Z,0.17
2023-01-02T03:24:24.054Z,0.30
2023-01-02T03:26:59.217Z,0.20
2023-01-02T03:29:35.184Z,0.57
2023-01-02T03:32:08.977Z,0.37
2023-01-02T03:34:40.185Z,0.60
2023-01-02T03:37:12.301Z,0.30
2023-01-02T03:39:45.329Z,0.50
2023-01-02T03:42:17.917Z,0.40
2023-01-02T03:44:56.116Z,0.30
2023-01-02T03:47:33.987Z,0.20
2023-01-02T03:50:07.234Z,0.30
2023-01-02T03:52:34.819Z,0.40
2023-01-02T03:55:03.869Z,0.20
2023-01-02T03:57:39.307Z,0.30
2023-01-02T04:00:16.582Z,0.67
2023-01-02T04:03:02.983Z,0.20
2023-01-02T04:05:51.968Z,0.57
2023-01-02T04:08:19.409Z,0.70
2023-01-02T04:10:56.312Z,0.37
2023-01-02T04:13:51.348Z,0.40
2023-01-02T04:16:22.759Z,0.50
2023-01-02T04:19:22.897Z,0.40
2023-01-02T04:21:55.664Z,0.50
2023-01-02T04:24:29.467Z,0.30
2023-01-02T04:27:03.746Z,0.47
2023-01-02T04:29:31.896Z,0.30
2023-01-02T04:32:12.137Z,0.40
2023-01-02T04:34:45.235Z,0.47
2023-01-02T04:37:27.990Z,0.50
2023-01-02T04:39:59.869Z,0.57
2023-01-02T04:42:27.448Z,0.50
2023-01-02T04:44:54.927Z,0.43
2023-01-02T04:47:22.451Z,0.30
2023-01-02T04:49:49.931Z,0.50
2023-01-02T04:52:17.491Z,0.30
2023-01-02T04:54:45.548Z,0.27
2023-01-02T04:57:13.139Z,0.70
2023-01-02T04:59:40.581Z,0.60
2023-01-02T05:02:08.137Z,0.30
2023-01-02T05:04:35.687Z,0.50
2023-01-02T05:07:04.130Z,0.60
2023-01-02T05:09:31.703Z,0.40
2023-01-02T05:11:59.245Z,0.40
2023-01-02T05:14:26.802Z,0.50
2023-01-02T05:16:54.412Z,0.70
2023-01-02T05:19:21.841Z,0.33
2023-01-02T05:22:07.935Z,0.53
2023-01-02T05:24:35.541Z,0.50
2023-01-02T05:27:02.971Z,0.40
2023-01-02T05:29:31.728Z,0.50
2023-01-02T05:31:59.331Z,0.30
2023-01-02T05:34:26.770Z,0.73
2023-01-02T05:36:54.437Z,0.50
2023-01-02T05:39:21.863Z,0.60
2023-01-02T05:41:49.383Z,0.57
2023-01-02T05:44:16.866Z,0.40
2023-01-02T05:46:45.043Z,0.50
2023-01-02T05:49:13.176Z,0.13
2023-01-02T05:51:40.780Z,0.30
2023-01-02T05:54:09.120Z,0.60
2023-01-02T05:56:36.626Z,0.40
2023-01-02T05:59:07.555Z,0.70
2023-01-02T06:01:36.108Z,0.50
2023-01-02T06:04:03.927Z,0.40
2023-01-02T06:06:38.046Z,0.70
2023-01-02T06:09:08.956Z,0.40
2023-01-02T06:11:37.176Z,0.47
2023-01-02T06:14:04.913Z,0.73
2023-01-02T06:16:32.619Z,0.60
2023-01-02T06:19:00.304Z,0.57
2023-01-02T06:21:27.884Z,0.40
2023-01-02T06:23:57.464Z,0.70
2023-01-02T06:26:32.712Z,0.40
2023-01-02T06:29:03.450Z,0.40
2023-01-02T06:31:33.560Z,0.70
2023-01-02T06:34:02.774Z,0.30
2023-01-02T06:36:33.408Z,0.30
2023-01-02T06:39:01.345Z,0.80
2023-01-02T06:41:28.826Z,0.50
2023-01-02T06:44:01.540Z,0.70
2023-01-02T06:46:29.074Z,0.60
2023-01-02T06:48:58.837Z,0.40
2023-01-02T06:51:26.389Z,0.57
2023-01-02T06:53:53.986Z,0.40
2023-01-02T06:56:22.904Z,0.50
2023-01-02T06:58:50.399Z,0.50
2023-01-02T07:01:20.702Z,0.60
2023-01-02T07:03:49.012Z,0.50
2023-01-02T07:06:20.286Z,0.77
2023-01-02T07:08:48.410Z,0.63
2023-01-02T07:11:22.270Z,0.80
2023-01-02T07:13:52.873Z,0.60
2023-01-02T07:16:23.050Z,0.60
2023-01-02T07:18:54.083Z,0.50
2023-01-02T07:21:22.160Z,0.40
2023-01-02T07:23:49.658Z,0.50
2023-01-02T07:26:18.050Z,0.70
2023-01-02T07:28:45.934Z,0.77
2023-01-02T07:31:16.462Z,0.60
2023-01-02T07:33:44.838Z,0.47
2023-01-02T07:36:16.926Z,0.50
2023-01-02T07:38:45.151Z,0.50
2023-01-02T07:41:15.609Z,0.57
2023-01-02T07:43:44.985Z,0.60
2023-01-02T07:46:14.755Z,0.80
2023-01-02T07:48:42.255Z,0.67
2023-01-02T07:51:10.808Z,0.90
2023-01-02T07:53:39.249Z,0.30
2023-01-02T07:56:07.452Z,0.80
2023-01-02T07:58:35.047Z,0.63
2023-01-02T08:01:07.980Z,0.70
2023-01-02T08:03:36.369Z,1.08
2023-01-02T08:06:15.153Z,0.45
2023-01-02T08:08:43.065Z,0.45
2023-01-02T08:11:15.950Z,0.68
2023-01-02T08:13:44.599Z,0.63
2023-01-02T08:16:30.015Z,0.60
2023-01-02T08:18:57.621Z,0.90
2023-01-02T08:21:26.636Z,0.50
2023-01-02T08:23:54.595Z,0.60
2023-01-02T08:26:23.413Z,0.70
2023-01-02T08:28:51.308Z,1.30
2023-01-02T08:31:21.378Z,0.80
2023-01-02T08:33:50.237Z,0.50
2023-01-02T08:36:19.279Z,0.50
2023-01-02T08:38:46.872Z,0.70
2023-01-02T08:41:15.419Z,0.90
2023-01-02T08:43:43.001Z,0.70
2023-01-02T08:46:10.702Z,0.47
2023-01-02T08:48:40.909Z,0.70
2023-01-02T08:51:08.631Z,0.75
2023-01-02T08:53:36.116Z,0.65
2023-01-02T08:56:25.811Z,0.75
2023-01-02T08:58:58.596Z,0.77
2023-01-02T09:01:28.395Z,0.55
2023-01-02T09:03:56.684Z,0.90
2023-01-02T09:06:26.612Z,0.50
2023-01-02T09:08:57.298Z,1.10
2023-01-02T09:11:31.332Z,0.70
2023-01-02T09:14:00.718Z,0.50
2023-01-02T09:16:28.937Z,0.57
2023-01-02T09:18:59.055Z,0.60
2023-01-02T09:21:27.222Z,0.85
2023-01-02T09:23:54.730Z,0.75
2023-01-02T09:26:22.309Z,0.55
2023-01-02T09:28:49.756Z,0.60
2023-01-02T09:31:18.827Z,0.80
2023-01-02T09:33:47.552Z,0.80
2023-01-02T09:36:19.792Z,0.60
2023-01-02T09:38:54.722Z,0.98
2023-01-02T09:41:22.233Z,0.43
2023-01-02T09:44:08.141Z,0.57
2023-01-02T09:46:40.117Z,0.70
2023-01-02T09:49:15.760Z,0.80
2023-01-02T09:51:43.864Z,0.75
2023-01-02T09:54:23.309Z,0.63
2023-01-02T09:57:09.555Z,0.70
2023-01-02T09:59:48.362Z,0.80
2023-01-02T10:02:49.768Z,0.55
2023-01-02T10:05:42.109Z,0.60
2023-01-02T10:08:13.414Z,0.50
2023-01-02T10:10:43.342Z,1.00
2023-01-02T10:13:59.828Z,0.83
2023-01-02T10:16:22.246Z,0.83
2023-01-02T10:18:52.927Z,0.67
2023-01-02T10:21:27.174Z,0.60
2023-01-02T10:24:04.190Z,0.70
2023-01-02T10:26:36.160Z,0.80
2023-01-02T10:29:16.535Z,0.73
2023-01-02T10:31:50.397Z,1.00
2023-01-02T10:34:20.504Z,0.50
2023-01-02T10:36:48.805Z,0.77
2023-01-02T10:39:17.953Z,0.83
2023-01-02T10:41:50.294Z,0.53
2023-01-02T10:44:26.815Z,1.20
2023-01-02T10:46:55.963Z,0.88
2023-01-02T10:49:25.860Z,0.80
2023-01-02T10:52:18.158Z,0.80
2023-01-02T10:55:00.164Z,0.70
2023-01-02T10:57:51.601Z,0.53
2023-01-02T11:00:25.517Z,1.43
2023-01-02T11:03:01.115Z,0.77
2023-01-02T11:05:31.405Z,0.70
2023-01-02T11:07:59.571Z,0.73
2023-01-02T11:10:33.922Z,0.70
2023-01-02T11:13:10.666Z,0.60
2023-01-02T11:15:56.628Z,0.80
2023-01-02T11:18:31.033Z,1.20
2023-01-02T11:21:04.522Z,0.83
2023-01-02T11:23:45.008Z,0.60
2023-01-02T11:26:20.529Z,0.60
2023-01-02T11:28:51.332Z,0.50
2023-01-02T11:31:19.923Z,0.83
2023-01-02T11:33:47.903Z,0.70
2023-01-02T11:36:17.084Z,0.80
2023-01-02T11:39:24.391Z,0.90
2023-01-02T11:42:35.253Z,0.80
2023-01-02T11:45:18.598Z,0.93
2023-01-02T11:47:52.097Z,0.73
2023-01-02T11:50:26.668Z,0.90
2023-01-02T11:53:12.287Z,0.87
2023-01-02T11:55:42.676Z,0.70
2023-01-02T11:58:28.349Z,0.60
2023-01-02T12:01:04.240Z,0.50
2023-01-02T12:03:33.370Z,1.13
2023-01-02T12:06:33.351Z,0.73
2023-01-02T12:09:11.840Z,0.90
2023-01-02T12:12:04.013Z,1.00
2023-01-02T12:14:57.751Z,0.77
2023-01-02T12:17:51.354Z,0.53
2023-01-02T12:20:27.391Z,0.87
2023-01-02T12:23:09.694Z,1.00
2023-01-02T12:26:09.078Z,0.70
2023-01-02T12:29:11.036Z,1.03
2023-01-02T12:31:53.543Z,0.90
2023-01-02T12:34:40.138Z,1.27
2023-01-02T12:37:07.627Z,0.80
2023-01-02T12:39:50.267Z,1.00
2023-01-02T12:42:46.374Z,0.87
2023-01-02T12:45:39.734Z,0.70
2023-01-02T12:48:17.385Z,1.20
2023-01-02T12:50:56.693Z,0.83
2023-01-02T12:53:37.441Z,0.60
2023-01-02T12:56:24.215Z,0.90
2023-01-02T12:59:48.685Z,0.90
2023-01-02T13:02:54.818Z,1.00
2023-01-02T13:05:32.752Z,1.10
2023-01-02T13:08:15.117Z,1.50
2023-01-02T13:10:43.263Z,0.93
2023-01-02T13:13:12.261Z,1.50
2023-01-02T13:15:44.041Z,1.20
2023-01-02T13:18:11.599Z,1.10
2023-01-02T13:21:12.934Z,0.93
2023-01-02T13:23:49.291Z,0.87
2023-01-02T13:26:20.759Z,1.00
2023-01-02T13:28:55.780Z,0.70
2023-01-02T13:34:32.229Z,0.85
2023-01-02T13:37:13.426Z,1.10
2023-01-02T13:39:40.901Z,1.10
2023-01-02T13:42:38.375Z,0.93
2023-01-02T13:45:29.592Z,0.80
2023-01-02T13:48:05.566Z,0.87
2023-01-02T13:50:35.705Z,0.90
2023-01-02T13:53:12.249Z,0.80
2023-01-02T13:55:39.775Z,0.90
2023-01-02T13:58:13.952Z,1.00
2023-01-02T14:01:23.268Z,0.63
2023-01-02T14:04:19.326Z,1.03
2023-01-02T14:06:53.862Z,1.03
2023-01-02T14:09:25.447Z,1.30
2023-01-02T14:11:57.732Z,1.00
2023-01-02T14:14:25.327Z,0.80
2023-01-02T14:17:03.139Z,0.80
2023-01-02T14:19:31.161Z,1.40
2023-01-02T14:21:58.592Z,0.60
2023-01-02T14:24:38.528Z,0.80
2023-01-02T14:27:18.082Z,1.83
2023-01-02T14:29:52.912Z,1.03
2023-01-02T14:32:37.320Z,1.00
2023-01-02T14:35:22.171Z,1.07
2023-01-02T14:37:53.317Z,1.20
2023-01-02T14:40:23.836Z,0.97
2023-01-02T14:43:17.470Z,1.10
2023-01-02T14:45:52.977Z,1.13
2023-01-02T14:48:30.744Z,1.00
2023-01-02T14:51:04.376Z,1.00
2023-01-02T14:53:37.373Z,1.47
2023-01-02T14:56:12.901Z,1.33
2023-01-02T14:58:42.162Z,1.00
2023-01-02T15:01:15.255Z,1.03
2023-01-02T15:04:39.051Z,1.07
2023-01-02T15:07:30.819Z,1.00
2023-01-02T15:10:14.919Z,1.30
2023-01-02T15:13:06.257Z,1.10
2023-01-02T15:16:02.338Z,1.00
2023-01-02T15:18:33.641Z,0.83
2023-01-02T15:21:24.663Z,1.07
2023-01-02T15:23:53.818Z,1.00
2023-01-02T15:26:34.731Z,1.00
2023-01-02T15:29:05.620Z,1.30
2023-01-02T15:31:33.820Z,1.00
2023-01-02T15:34:01.457Z,1.30
2023-01-02T15:36:33.285Z,0.90
2023-01-02T15:39:22.646Z,0.87
2023-01-02T15:41:57.487Z,1.00
2023-01-02T15:44:46.529Z,0.80
2023-01-02T15:47:15.240Z,1.10
2023-01-02T15:49:45.140Z,1.20
2023-01-02T15:52:24.102Z,1.50
2023-01-02T15:54:53.444Z,1.10
2023-01-02T15:57:27.875Z,1.47
2023-01-02T15:59:56.054Z,1.30
2023-01-02T16:02:42.653Z,1.07
2023-01-02T16:05:15.807Z,1.17
2023-01-02T16:07:49.922Z,1.40
2023-01-02T16:10:21.242Z,1.10
2023-01-02T16:12:56.068Z,0.90
2023-01-02T16:15:30.972Z,1.60
2023-01-02T16:17:58.629Z,1.07
2023-01-02T16:20:28.072Z,1.20
2023-01-02T16:23:19.030Z,1.00
2023-01-02T16:25:50.011Z,1.07
2023-01-02T16:28:35.410Z,1.00
2023-01-02T16:31:14.593Z,1.30
2023-01-02T16:33:43.467Z,1.03
2023-01-02T16:36:21.609Z,0.93
2023-01-02T16:38:55.081Z,1.10
2023-01-02T16:41:36.565Z,1.17
2023-01-02T16:44:14.514Z,1.13
2023-01-02T16:46:44.351Z,1.23
2023-01-02T16:49:18.176Z,1.10
2023-01-02T16:51:48.201Z,1.30
2023-01-02T16:54:17.623Z,1.13
2023-01-02T16:56:45.593Z,1.23
2023-01-02T16:59:13.023Z,0.83
2023-01-02T17:01:40.713Z,1.00
2023-01-02T17:04:08.258Z,1.10
2023-01-02T17:06:36.029Z,1.07
2023-01-02T17:09:03.773Z,1.10
2023-01-02T17:11:31.394Z,1.00
2023-01-02T17:14:01.135Z,1.10
2023-01-02T17:16:28.960Z,1.33
2023-01-02T17:18:56.455Z,1.10
2023-01-02T17:21:27.732Z,1.53
2023-01-02T17:23:58.448Z,0.77
2023-01-02T17:26:26.005Z,1.10
2023-01-02T17:28:53.524Z,1.13
2023-01-02T17:31:25.551Z,0.90
2023-01-02T17:33:56.042Z,1.47
2023-01-02T17:36:23.547Z,1.03
2023-01-02T17:38:51.018Z,1.20
2023-01-02T17:41:18.734Z,1.30
2023-01-02T17:44:01.962Z,1.40
2023-01-02T17:47:09.351Z,1.63
2023-01-02T17:49:21.166Z,1.40
2023-01-02T17:51:48.922Z,1.30
2023-01-02T17:54:16.927Z,2.23
2023-01-02T17:56:44.523Z,1.00
2023-01-02T17:59:14.071Z,1.10
2023-01-02T18:01:41.700Z,1.53
2023-01-02T18:04:09.248Z,1.23
2023-01-02T18:06:36.921Z,1.40
2023-01-02T18:09:05.383Z,1.20
2023-01-02T18:11:33.072Z,1.70
2023-01-02T18:14:02.381Z,1.00
2023-01-02T18:16:38.519Z,1.10
2023-01-02T18:19:27.842Z,1.03
2023-01-02T18:21:55.725Z,1.63
2023-01-02T18:24:32.461Z,1.00
2023-01-02T18:27:10.919Z,1.70
2023-01-02T18:29:38.945Z,1.17
2023-01-02T18:32:16.640Z,1.47
2023-01-02T18:34:48.571Z,1.30
2023-01-02T18:37:28.801Z,1.00
2023-01-02T18:39:57.491Z,0.90
2023-01-02T18:42:32.253Z,1.30
2023-01-02T18:45:12.245Z,1.10
2023-01-02T18:47:43.427Z,0.95
2023-01-02T18:50:19.815Z,0.97
2023-01-02T18:52:51.977Z,1.03
2023-01-02T18:55:27.658Z,1.23
2023-01-02T18:58:09.586Z,1.23
2023-01-02T19:00:39.706Z,1.03
2023-01-02T19:03:07.835Z,1.50
2023-01-02T19:05:39.892Z,1.20
2023-01-02T19:08:12.856Z,0.97
2023-01-02T19:10:44.932Z,1.10
2023-01-02T19:13:25.805Z,1.00
2023-01-02T19:15:58.927Z,1.00
2023-01-02T19:18:36.416Z,0.93
2023-01-02T19:21:09.913Z,0.88
2023-01-02T19:23:56.642Z,1.23
2023-01-02T19:26:24.138Z,1.00
2023-01-02T19:29:28.011Z,1.20
2023-01-02T19:32:15.276Z,0.97
2023-01-02T19:34:47.111Z,1.08
2023-01-02T19:37:29.995Z,1.20
2023-01-02T19:40:00.264Z,1.03
2023-01-02T19:42:29.803Z,1.20
2023-01-02T19:44:58.805Z,1.80
2023-01-02T19:47:32.437Z,1.40
2023-01-02T19:50:01.173Z,1.30
2023-01-02T19:52:29.987Z,1.17
2023-01-02T19:54:58.077Z,1.03
2023-01-02T19:57:26.577Z,1.23
2023-01-02T19:59:59.080Z,1.50
2023-01-02T20:02:28.062Z,1.77
2023-01-02T20:04:56.200Z,0.97
2023-01-02T20:07:25.483Z,0.80
2023-01-02T20:09:53.625Z,1.27
2023-01-02T20:12:30.681Z,1.10
2023-01-02T20:15:15.019Z,1.23
2023-01-02T20:17:45.480Z,1.20
2023-01-02T20:20:20.997Z,1.10
2023-01-02T20:22:51.699Z,1.00
2023-01-02T20:25:24.106Z,1.57
2023-01-02T20:27:53.996Z,0.90
2023-01-02T20:30:24.602Z,1.37
2023-01-02T20:32:53.666Z,1.47
2023-01-02T20:35:21.706Z,1.10
2023-01-02T20:37:49.278Z,1.20
2023-01-02T20:40:16.832Z,1.30
2023-01-02T20:42:44.388Z,1.13
2023-01-02T20:45:12.389Z,1.00
2023-01-02T20:47:39.923Z,1.37
2023-01-02T20:50:08.004Z,1.17
2023-01-02T20:52:35.477Z,1.23
2023-01-02T20:55:03.091Z,1.10
2023-01-02T20:57:30.999Z,1.10
2023-01-02T20:59:58.785Z,1.30
2023-01-02T21:02:26.304Z,1.20
2023-01-02T21:04:54.038Z,0.93
2023-01-02T21:07:21.877Z,1.10
2023-01-02T21:09:49.394Z,1.20
2023-01-02T21:12:35.598Z,1.30
2023-01-02T21:15:03.234Z,1.20
2023-01-02T21:17:30.860Z,1.10
2023-01-02T21:19:58.384Z,2.10
2023-01-02T21:22:25.826Z,1.53
2023-01-02T21:24:53.379Z,1.73
2023-01-02T21:27:20.856Z,1.37
2023-01-02T21:29:48.396Z,1.53
2023-01-02T21:32:15.891Z,1.30
2023-01-02T21:34:43.577Z,2.53
2023-01-02T21:37:11.055Z,1.70
2023-01-02T21:39:38.606Z,2.20
2023-01-02T21:42:18.450Z,1.20
2023-01-02T21:44:49.823Z,1.50
2023-01-02T21:47:18.061Z,1.40
2023-01-02T21:49:45.736Z,1.77
2023-01-02T21:52:13.275Z,2.07
2023-01-02T21:54:40.853Z,1.47
2023-01-02T21:57:09.045Z,1.20
2023-01-02T21:59:37.211Z,1.27
2023-01-02T22:02:06.799Z,1.53
2023-01-02T22:04:35.289Z,1.50
2023-01-02T22:09:51.392Z,1.80
2023-01-02T22:12:19.718Z,1.37
2023-01-02T22:14:47.286Z,1.50
2023-01-02T22:17:14.835Z,1.37
2023-01-02T22:19:42.358Z,1.20
2023-01-02T22:22:10.576Z,1.30
2023-01-02T22:24:44.167Z,1.23
2023-01-02T22:27:14.725Z,1.53
2023-01-02T22:30:19.554Z,1.50
2023-01-02T22:32:33.712Z,1.80
2023-01-02T22:35:06.019Z,1.27
2023-01-02T22:37:33.686Z,1.13
2023-01-02T22:40:02.204Z,1.37
2023-01-02T22:43:02.653Z,1.40
2023-01-02T22:45:36.923Z,1.60
2023-01-02T22:48:07.640Z,1.37
2023-01-02T22:50:43.882Z,1.10
2023-01-02T22:53:38.517Z,1.63
2023-01-02T22:56:15.564Z,1.80
2023-01-02T22:58:43.324Z,2.38
2023-01-02T23:01:25.660Z,2.60
2023-01-02T23:03:53.736Z,1.70
2023-01-02T23:06:22.392Z,1.60
2023-01-02T23:08:51.632Z,1.93
2023-01-02T23:11:20.433Z,2.60
2023-01-02T23:13:54.576Z,2.03
2023-01-02T23:16:42.790Z,2.00
2023-01-02T23:19:18.633Z,2.63
2023-01-02T23:21:49.785Z,1.80
2023-01-02T23:24:20.146Z,2.20
2023-01-02T23:26:51.140Z,2.20
2023-01-02T23:29:20.237Z,1.77
2023-01-02T23:31:49.807Z,1.93
2023-01-02T23:34:20.883Z,1.97
2023-01-02T23:36:48.649Z,1.93
2023-01-02T23:39:19.601Z,2.00
2023-01-02T23:41:48.359Z,1.57
2023-01-02T23:44:19.709Z,1.57
2023-01-02T23:46:47.633Z,1.87
2023-01-02T23:49:16.555Z,1.80
2023-01-02T23:51:44.992Z,1.57
2023-01-02T23:54:14.834Z,2.50
2023-01-02T23:56:45.662Z,1.53
2023-01-02T23:59:19.404Z,1.43
